sensor_id;sensor_type;location;lat;lon;timestamp;temperature;humidity
12276;DHT22;6200;48.144;11.424;2022-08-19T00:01:49;18.10;99.90
12276;DHT22;6200;48.144;11.424;2022-08-19T00:04:16;18.20;99.90
12276;DHT22;6200;48.144;11.424;2022-08-19T00:06:44;18.20;99.90
12276;DHT22;6200;48.144;11.424;2022-08-19T00:09:12;18.20;99.90
12276;DHT22;6200;48.144;11.424;2022-08-19T00:11:39;18.20;99.90
12276;DHT22;6200;48.144;11.424;2022-08-19T00:14:07;18.20;99.90
12276;DHT22;6200;48.144;11.424;2022-08-19T00:16:35;18.20;99.90
12276;DHT22;6200;48.144;11.424;2022-08-19T00:19:01;18.20;99.90
12276;DHT22;6200;48.144;11.424;2022-08-19T00:21:27;18.20;99.90
12276;DHT22;6200;48.144;11.424;2022-08-19T00:23:53;18.20;99.90
12276;DHT22;6200;48.144;11.424;2022-08-19T00:26:20;18.20;99.90
12276;DHT22;6200;48.144;11.424;2022-08-19T00:28:46;18.30;99.90
12276;DHT22;6200;48.144;11.424;2022-08-19T00:31:12;18.30;99.90
12276;DHT22;6200;48.144;11.424;2022-08-19T00:33:37;18.30;99.90
12276;DHT22;6200;48.144;11.424;2022-08-19T00:36:06;18.30;99.90
12276;DHT22;6200;48.144;11.424;2022-08-19T00:38:33;18.30;99.90
12276;DHT22;6200;48.144;11.424;2022-08-19T00:40:59;18.30;99.90
12276;DHT22;6200;48.144;11.424;2022-08-19T00:43:26;18.20;99.90
12276;DHT22;6200;48.144;11.424;2022-08-19T00:45:53;18.30;99.90
12276;DHT22;6200;48.144;11.424;2022-08-19T00:48:20;18.30;99.90
12276;DHT22;6200;48.144;11.424;2022-08-19T00:50:48;18.30;99.90
12276;DHT22;6200;48.144;11.424;2022-08-19T00:53:16;18.30;99.90
12276;DHT22;6200;48.144;11.424;2022-08-19T00:55:49;18.40;99.90
12276;DHT22;6200;48.144;11.424;2022-08-19T00:58:19;17.90;99.90
12276;DHT22;6200;48.144;11.424;2022-08-19T01:00:46;18.30;99.90
12276;DHT22;6200;48.144;11.424;2022-08-19T01:03:18;18.30;99.90
12276;DHT22;6200;48.144;11.424;2022-08-19T01:05:45;18.30;99.90
12276;DHT22;6200;48.144;11.424;2022-08-19T01:08:12;18.30;99.90
12276;DHT22;6200;48.144;11.424;2022-08-19T01:10:47;18.20;99.90
12276;DHT22;6200;48.144;11.424;2022-08-19T01:13:15;18.30;99.90
12276;DHT22;6200;48.144;11.424;2022-08-19T01:15:45;18.30;99.90
12276;DHT22;6200;48.144;11.424;2022-08-19T01:18:13;18.30;99.90
12276;DHT22;6200;48.144;11.424;2022-08-19T01:20:40;18.30;99.90
12276;DHT22;6200;48.144;11.424;2022-08-19T01:23:07;18.20;99.90
12276;DHT22;6200;48.144;11.424;2022-08-19T01:25:45;18.20;99.90
12276;DHT22;6200;48.144;11.424;2022-08-19T01:28:19;18.20;99.90
12276;DHT22;6200;48.144;11.424;2022-08-19T01:30:46;18.20;99.90
12276;DHT22;6200;48.144;11.424;2022-08-19T01:33:12;18.20;99.90
12276;DHT22;6200;48.144;11.424;2022-08-19T01:35:38;18.20;99.90
12276;DHT22;6200;48.144;11.424;2022-08-19T01:38:06;18.20;99.90
12276;DHT22;6200;48.144;11.424;2022-08-19T01:40:34;18.20;99.90
12276;DHT22;6200;48.144;11.424;2022-08-19T01:43:01;17.00;99.90
12276;DHT22;6200;48.144;11.424;2022-08-19T01:45:29;18.20;99.90
12276;DHT22;6200;48.144;11.424;2022-08-19T01:47:58;18.20;99.90
12276;DHT22;6200;48.144;11.424;2022-08-19T01:50:23;18.20;99.90
12276;DHT22;6200;48.144;11.424;2022-08-19T01:52:49;18.20;99.90
12276;DHT22;6200;48.144;11.424;2022-08-19T01:55:18;18.20;99.90
12276;DHT22;6200;48.144;11.424;2022-08-19T01:57:48;18.20;99.90
12276;DHT22;6200;48.144;11.424;2022-08-19T02:00:17;18.20;99.90
12276;DHT22;6200;48.144;11.424;2022-08-19T02:02:43;18.20;99.90
12276;DHT22;6200;48.144;11.424;2022-08-19T02:05:09;18.20;99.90
12276;DHT22;6200;48.144;11.424;2022-08-19T02:07:36;18.20;99.90
12276;DHT22;6200;48.144;11.424;2022-08-19T02:10:09;18.20;99.90
12276;DHT22;6200;48.144;11.424;2022-08-19T02:12:35;18.20;99.90
12276;DHT22;6200;48.144;11.424;2022-08-19T02:15:01;18.20;99.90
12276;DHT22;6200;48.144;11.424;2022-08-19T02:17:28;18.20;99.90
12276;DHT22;6200;48.144;11.424;2022-08-19T02:19:54;18.20;99.90
12276;DHT22;6200;48.144;11.424;2022-08-19T02:22:20;18.20;99.90
12276;DHT22;6200;48.144;11.424;2022-08-19T02:24:46;18.20;99.90
12276;DHT22;6200;48.144;11.424;2022-08-19T02:27:13;18.20;99.90
12276;DHT22;6200;48.144;11.424;2022-08-19T02:29:39;18.20;99.90
12276;DHT22;6200;48.144;11.424;2022-08-19T02:32:05;18.20;99.90
12276;DHT22;6200;48.144;11.424;2022-08-19T02:34:30;18.20;99.90
12276;DHT22;6200;48.144;11.424;2022-08-19T02:36:56;18.20;99.90
12276;DHT22;6200;48.144;11.424;2022-08-19T02:39:21;18.20;99.90
12276;DHT22;6200;48.144;11.424;2022-08-19T02:41:47;18.20;99.90
12276;DHT22;6200;48.144;11.424;2022-08-19T02:44:13;18.20;99.90
12276;DHT22;6200;48.144;11.424;2022-08-19T02:46:39;18.20;99.90
12276;DHT22;6200;48.144;11.424;2022-08-19T02:49:06;18.20;99.90
12276;DHT22;6200;48.144;11.424;2022-08-19T02:51:38;18.20;99.90
12276;DHT22;6200;48.144;11.424;2022-08-19T02:54:04;18.20;99.90
12276;DHT22;6200;48.144;11.424;2022-08-19T02:56:30;18.20;99.90
12276;DHT22;6200;48.144;11.424;2022-08-19T02:58:57;18.20;99.90
12276;DHT22;6200;48.144;11.424;2022-08-19T03:01:29;18.30;99.90
12276;DHT22;6200;48.144;11.424;2022-08-19T03:03:56;18.20;99.90
12276;DHT22;6200;48.144;11.424;2022-08-19T03:06:23;18.20;99.90
12276;DHT22;6200;48.144;11.424;2022-08-19T03:08:49;18.20;99.90
12276;DHT22;6200;48.144;11.424;2022-08-19T03:11:19;18.20;99.90
12276;DHT22;6200;48.144;11.424;2022-08-19T03:13:45;18.20;99.90
12276;DHT22;6200;48.144;11.424;2022-08-19T03:16:12;18.20;99.90
12276;DHT22;6200;48.144;11.424;2022-08-19T03:18:38;18.20;99.90
12276;DHT22;6200;48.144;11.424;2022-08-19T03:21:06;18.20;99.90
12276;DHT22;6200;48.144;11.424;2022-08-19T03:23:32;18.20;99.90
12276;DHT22;6200;48.144;11.424;2022-08-19T03:25:58;18.10;99.90
12276;DHT22;6200;48.144;11.424;2022-08-19T03:28:23;18.20;99.90
12276;DHT22;6200;48.144;11.424;2022-08-19T03:31:05;18.20;99.90
12276;DHT22;6200;48.144;11.424;2022-08-19T03:33:33;18.10;99.90
12276;DHT22;6200;48.144;11.424;2022-08-19T03:36:05;18.10;99.90
12276;DHT22;6200;48.144;11.424;2022-08-19T03:38:33;18.20;99.90
12276;DHT22;6200;48.144;11.424;2022-08-19T03:41:03;18.20;99.90
12276;DHT22;6200;48.144;11.424;2022-08-19T03:43:32;18.20;99.90
12276;DHT22;6200;48.144;11.424;2022-08-19T03:46:07;18.20;99.90
12276;DHT22;6200;48.144;11.424;2022-08-19T03:48:34;18.10;99.90
12276;DHT22;6200;48.144;11.424;2022-08-19T03:50:59;18.20;99.90
12276;DHT22;6200;48.144;11.424;2022-08-19T03:53:27;18.20;99.90
12276;DHT22;6200;48.144;11.424;2022-08-19T03:55:53;18.20;99.90
12276;DHT22;6200;48.144;11.424;2022-08-19T03:58:19;18.20;99.90
12276;DHT22;6200;48.144;11.424;2022-08-19T04:00:45;18.10;99.90
12276;DHT22;6200;48.144;11.424;2022-08-19T04:03:10;18.10;99.90
12276;DHT22;6200;48.144;11.424;2022-08-19T04:05:36;18.10;99.90
12276;DHT22;6200;48.144;11.424;2022-08-19T04:08:04;18.10;99.90
12276;DHT22;6200;48.144;11.424;2022-08-19T04:10:34;18.10;99.90
12276;DHT22;6200;48.144;11.424;2022-08-19T04:13:00;18.10;99.90
12276;DHT22;6200;48.144;11.424;2022-08-19T04:15:26;18.10;99.90
12276;DHT22;6200;48.144;11.424;2022-08-19T04:17:52;18.10;99.90
12276;DHT22;6200;48.144;11.424;2022-08-19T04:20:18;18.10;99.90
12276;DHT22;6200;48.144;11.424;2022-08-19T04:22:43;18.10;99.90
12276;DHT22;6200;48.144;11.424;2022-08-19T04:25:09;18.00;99.90
12276;DHT22;6200;48.144;11.424;2022-08-19T04:27:35;18.00;99.90
12276;DHT22;6200;48.144;11.424;2022-08-19T04:30:01;18.00;99.90
12276;DHT22;6200;48.144;11.424;2022-08-19T04:32:26;18.00;99.90
12276;DHT22;6200;48.144;11.424;2022-08-19T04:34:52;18.10;99.90
12276;DHT22;6200;48.144;11.424;2022-08-19T04:37:18;18.10;99.90
12276;DHT22;6200;48.144;11.424;2022-08-19T04:39:44;18.10;99.90
12276;DHT22;6200;48.144;11.424;2022-08-19T04:42:28;18.10;99.90
12276;DHT22;6200;48.144;11.424;2022-08-19T04:45:07;18.10;99.90
12276;DHT22;6200;48.144;11.424;2022-08-19T04:47:42;18.10;99.90
12276;DHT22;6200;48.144;11.424;2022-08-19T04:50:09;18.10;99.90
12276;DHT22;6200;48.144;11.424;2022-08-19T04:52:36;18.10;99.90
12276;DHT22;6200;48.144;11.424;2022-08-19T04:55:02;18.20;99.90
12276;DHT22;6200;48.144;11.424;2022-08-19T04:57:28;18.20;99.90
12276;DHT22;6200;48.144;11.424;2022-08-19T04:59:55;18.30;99.90
12276;DHT22;6200;48.144;11.424;2022-08-19T05:02:20;18.30;99.90
12276;DHT22;6200;48.144;11.424;2022-08-19T05:04:48;18.30;99.90
12276;DHT22;6200;48.144;11.424;2022-08-19T05:07:13;18.30;99.90
12276;DHT22;6200;48.144;11.424;2022-08-19T05:09:39;18.30;99.90
12276;DHT22;6200;48.144;11.424;2022-08-19T05:12:05;18.30;99.90
12276;DHT22;6200;48.144;11.424;2022-08-19T05:14:31;18.30;99.90
12276;DHT22;6200;48.144;11.424;2022-08-19T05:16:56;18.40;99.90
12276;DHT22;6200;48.144;11.424;2022-08-19T05:19:22;18.40;99.90
12276;DHT22;6200;48.144;11.424;2022-08-19T05:22:06;18.40;99.90
12276;DHT22;6200;48.144;11.424;2022-08-19T05:24:50;18.40;99.90
12276;DHT22;6200;48.144;11.424;2022-08-19T05:27:16;18.40;99.90
12276;DHT22;6200;48.144;11.424;2022-08-19T05:29:41;18.40;99.90
12276;DHT22;6200;48.144;11.424;2022-08-19T05:32:07;18.30;99.90
12276;DHT22;6200;48.144;11.424;2022-08-19T05:34:34;18.30;99.90
12276;DHT22;6200;48.144;11.424;2022-08-19T05:37:02;18.30;99.90
12276;DHT22;6200;48.144;11.424;2022-08-19T05:39:30;18.30;99.90
12276;DHT22;6200;48.144;11.424;2022-08-19T05:41:59;18.40;99.90
12276;DHT22;6200;48.144;11.424;2022-08-19T05:44:26;18.40;99.90
12276;DHT22;6200;48.144;11.424;2022-08-19T05:46:53;18.30;99.90
12276;DHT22;6200;48.144;11.424;2022-08-19T05:49:21;18.40;99.90
12276;DHT22;6200;48.144;11.424;2022-08-19T05:51:47;18.40;99.90
12276;DHT22;6200;48.144;11.424;2022-08-19T05:54:13;18.40;99.90
12276;DHT22;6200;48.144;11.424;2022-08-19T05:56:40;18.40;99.90
12276;DHT22;6200;48.144;11.424;2022-08-19T05:59:08;18.50;99.90
12276;DHT22;6200;48.144;11.424;2022-08-19T06:01:34;18.60;99.90
12276;DHT22;6200;48.144;11.424;2022-08-19T06:04:00;18.60;99.90
12276;DHT22;6200;48.144;11.424;2022-08-19T06:06:25;18.60;99.90
12276;DHT22;6200;48.144;11.424;2022-08-19T06:08:51;18.50;99.90
12276;DHT22;6200;48.144;11.424;2022-08-19T06:11:40;18.50;99.90
12276;DHT22;6200;48.144;11.424;2022-08-19T06:14:09;18.60;99.90
12276;DHT22;6200;48.144;11.424;2022-08-19T06:16:36;18.60;99.90
12276;DHT22;6200;48.144;11.424;2022-08-19T06:19:04;18.60;99.90
12276;DHT22;6200;48.144;11.424;2022-08-19T06:21:33;18.50;99.90
12276;DHT22;6200;48.144;11.424;2022-08-19T06:23:59;18.50;99.90
12276;DHT22;6200;48.144;11.424;2022-08-19T06:26:25;18.50;99.90
12276;DHT22;6200;48.144;11.424;2022-08-19T06:28:51;18.50;99.90
12276;DHT22;6200;48.144;11.424;2022-08-19T06:31:20;18.50;99.90
12276;DHT22;6200;48.144;11.424;2022-08-19T06:33:47;18.40;99.90
12276;DHT22;6200;48.144;11.424;2022-08-19T06:36:29;18.40;99.90
12276;DHT22;6200;48.144;11.424;2022-08-19T06:38:58;18.50;99.90
12276;DHT22;6200;48.144;11.424;2022-08-19T06:41:25;18.50;99.90
12276;DHT22;6200;48.144;11.424;2022-08-19T06:43:51;18.50;99.90
12276;DHT22;6200;48.144;11.424;2022-08-19T06:46:17;18.50;99.90
12276;DHT22;6200;48.144;11.424;2022-08-19T06:48:45;18.50;99.90
12276;DHT22;6200;48.144;11.424;2022-08-19T06:51:11;18.50;99.90
12276;DHT22;6200;48.144;11.424;2022-08-19T06:53:36;18.60;99.90
12276;DHT22;6200;48.144;11.424;2022-08-19T06:56:02;18.60;99.90
12276;DHT22;6200;48.144;11.424;2022-08-19T06:58:31;18.60;99.90
12276;DHT22;6200;48.144;11.424;2022-08-19T07:01:01;18.50;99.90
12276;DHT22;6200;48.144;11.424;2022-08-19T07:03:35;18.60;99.90
12276;DHT22;6200;48.144;11.424;2022-08-19T07:06:05;18.60;99.90
12276;DHT22;6200;48.144;11.424;2022-08-19T07:08:30;18.50;99.90
12276;DHT22;6200;48.144;11.424;2022-08-19T07:10:56;18.60;99.90
12276;DHT22;6200;48.144;11.424;2022-08-19T07:13:23;18.70;99.90
12276;DHT22;6200;48.144;11.424;2022-08-19T07:15:49;18.70;99.90
12276;DHT22;6200;48.144;11.424;2022-08-19T07:18:16;18.80;99.90
12276;DHT22;6200;48.144;11.424;2022-08-19T07:20:42;18.90;99.90
12276;DHT22;6200;48.144;11.424;2022-08-19T07:23:08;19.00;99.90
12276;DHT22;6200;48.144;11.424;2022-08-19T07:25:36;19.00;99.90
12276;DHT22;6200;48.144;11.424;2022-08-19T07:28:02;19.20;99.90
12276;DHT22;6200;48.144;11.424;2022-08-19T07:30:28;19.20;99.90
12276;DHT22;6200;48.144;11.424;2022-08-19T07:32:54;19.20;99.90
12276;DHT22;6200;48.144;11.424;2022-08-19T07:35:19;19.30;99.90
12276;DHT22;6200;48.144;11.424;2022-08-19T07:37:45;19.50;99.90
12276;DHT22;6200;48.144;11.424;2022-08-19T07:40:12;19.50;99.90
12276;DHT22;6200;48.144;11.424;2022-08-19T07:42:38;19.70;99.90
12276;DHT22;6200;48.144;11.424;2022-08-19T07:45:04;19.80;99.90
12276;DHT22;6200;48.144;11.424;2022-08-19T07:47:30;19.90;99.90
12276;DHT22;6200;48.144;11.424;2022-08-19T07:49:56;20.00;99.90
12276;DHT22;6200;48.144;11.424;2022-08-19T07:52:22;20.00;99.90
12276;DHT22;6200;48.144;11.424;2022-08-19T07:54:48;20.20;99.90
12276;DHT22;6200;48.144;11.424;2022-08-19T07:57:15;20.10;99.90
12276;DHT22;6200;48.144;11.424;2022-08-19T07:59:40;20.10;99.90
12276;DHT22;6200;48.144;11.424;2022-08-19T08:02:06;20.00;99.90
12276;DHT22;6200;48.144;11.424;2022-08-19T08:04:32;19.80;99.90
12276;DHT22;6200;48.144;11.424;2022-08-19T08:07:17;19.90;99.90
12276;DHT22;6200;48.144;11.424;2022-08-19T08:10:01;19.90;99.90
12276;DHT22;6200;48.144;11.424;2022-08-19T08:12:37;19.80;99.90
12276;DHT22;6200;48.144;11.424;2022-08-19T08:15:09;19.80;99.90
12276;DHT22;6200;48.144;11.424;2022-08-19T08:17:35;19.80;99.90
12276;DHT22;6200;48.144;11.424;2022-08-19T08:20:04;19.70;99.90
12276;DHT22;6200;48.144;11.424;2022-08-19T08:22:32;19.70;99.90
12276;DHT22;6200;48.144;11.424;2022-08-19T08:25:20;19.60;99.90
12276;DHT22;6200;48.144;11.424;2022-08-19T08:27:46;19.00;99.90
12276;DHT22;6200;48.144;11.424;2022-08-19T08:30:20;19.40;99.90
12276;DHT22;6200;48.144;11.424;2022-08-19T08:32:47;19.40;99.90
12276;DHT22;6200;48.144;11.424;2022-08-19T08:35:15;19.40;99.90
12276;DHT22;6200;48.144;11.424;2022-08-19T08:37:42;19.40;99.90
12276;DHT22;6200;48.144;11.424;2022-08-19T08:40:29;19.40;99.90
12276;DHT22;6200;48.144;11.424;2022-08-19T08:46:03;19.40;99.90
12276;DHT22;6200;48.144;11.424;2022-08-19T08:51:12;19.20;99.90
12276;DHT22;6200;48.144;11.424;2022-08-19T08:53:41;19.20;99.90
12276;DHT22;6200;48.144;11.424;2022-08-19T08:56:08;19.20;99.90
12276;DHT22;6200;48.144;11.424;2022-08-19T08:58:59;19.20;99.90
12276;DHT22;6200;48.144;11.424;2022-08-19T09:01:26;19.20;99.90
12276;DHT22;6200;48.144;11.424;2022-08-19T09:03:53;19.30;99.90
12276;DHT22;6200;48.144;11.424;2022-08-19T09:09:21;19.20;99.90
12276;DHT22;6200;48.144;11.424;2022-08-19T09:11:57;19.40;99.90
12276;DHT22;6200;48.144;11.424;2022-08-19T09:17:02;19.40;99.90
12276;DHT22;6200;48.144;11.424;2022-08-19T09:19:29;19.40;99.90
12276;DHT22;6200;48.144;11.424;2022-08-19T09:21:55;19.40;99.90
12276;DHT22;6200;48.144;11.424;2022-08-19T09:24:21;19.40;99.90
12276;DHT22;6200;48.144;11.424;2022-08-19T09:26:47;19.50;99.90
12276;DHT22;6200;48.144;11.424;2022-08-19T09:29:12;19.50;99.90
12276;DHT22;6200;48.144;11.424;2022-08-19T09:31:38;19.50;99.90
12276;DHT22;6200;48.144;11.424;2022-08-19T09:34:04;19.60;99.90
12276;DHT22;6200;48.144;11.424;2022-08-19T09:36:31;19.60;99.90
12276;DHT22;6200;48.144;11.424;2022-08-19T09:39:02;19.60;99.90
12276;DHT22;6200;48.144;11.424;2022-08-19T09:41:28;19.80;99.90
12276;DHT22;6200;48.144;11.424;2022-08-19T09:43:56;19.80;99.90
12276;DHT22;6200;48.144;11.424;2022-08-19T09:46:23;19.90;99.90
12276;DHT22;6200;48.144;11.424;2022-08-19T09:48:50;20.00;99.90
12276;DHT22;6200;48.144;11.424;2022-08-19T09:51:20;20.10;99.90
12276;DHT22;6200;48.144;11.424;2022-08-19T09:53:47;20.00;99.90
12276;DHT22;6200;48.144;11.424;2022-08-19T09:56:16;20.00;99.90
12276;DHT22;6200;48.144;11.424;2022-08-19T09:58:41;20.00;99.90
12276;DHT22;6200;48.144;11.424;2022-08-19T10:01:07;20.00;99.90
12276;DHT22;6200;48.144;11.424;2022-08-19T10:03:34;19.90;99.90
12276;DHT22;6200;48.144;11.424;2022-08-19T10:06:03;19.90;99.90
12276;DHT22;6200;48.144;11.424;2022-08-19T10:08:31;20.00;99.90
12276;DHT22;6200;48.144;11.424;2022-08-19T10:10:59;20.00;99.90
12276;DHT22;6200;48.144;11.424;2022-08-19T10:13:27;20.10;99.90
12276;DHT22;6200;48.144;11.424;2022-08-19T10:15:54;20.10;99.90
12276;DHT22;6200;48.144;11.424;2022-08-19T10:18:21;20.30;99.90
12276;DHT22;6200;48.144;11.424;2022-08-19T10:20:49;20.40;99.90
12276;DHT22;6200;48.144;11.424;2022-08-19T10:23:16;20.40;99.90
12276;DHT22;6200;48.144;11.424;2022-08-19T10:25:41;20.60;99.90
12276;DHT22;6200;48.144;11.424;2022-08-19T10:28:08;20.70;99.90
12276;DHT22;6200;48.144;11.424;2022-08-19T10:30:35;20.80;99.90
12276;DHT22;6200;48.144;11.424;2022-08-19T10:33:01;20.90;99.90
12276;DHT22;6200;48.144;11.424;2022-08-19T10:35:26;21.10;99.90
12276;DHT22;6200;48.144;11.424;2022-08-19T10:37:55;21.30;99.90
12276;DHT22;6200;48.144;11.424;2022-08-19T10:40:28;21.50;99.90
12276;DHT22;6200;48.144;11.424;2022-08-19T10:42:54;22.10;99.90
12276;DHT22;6200;48.144;11.424;2022-08-19T10:45:21;22.50;99.90
12276;DHT22;6200;48.144;11.424;2022-08-19T10:47:48;22.50;99.90
12276;DHT22;6200;48.144;11.424;2022-08-19T10:50:14;22.50;99.90
12276;DHT22;6200;48.144;11.424;2022-08-19T10:53:03;22.10;99.90
12276;DHT22;6200;48.144;11.424;2022-08-19T10:55:29;22.00;99.90
12276;DHT22;6200;48.144;11.424;2022-08-19T10:58:19;22.00;99.90
12276;DHT22;6200;48.144;11.424;2022-08-19T11:00:52;22.30;99.90
12276;DHT22;6200;48.144;11.424;2022-08-19T11:03:18;22.70;99.90
12276;DHT22;6200;48.144;11.424;2022-08-19T11:05:44;23.30;99.90
12276;DHT22;6200;48.144;11.424;2022-08-19T11:08:09;23.50;99.90
12276;DHT22;6200;48.144;11.424;2022-08-19T11:10:40;23.60;99.90
12276;DHT22;6200;48.144;11.424;2022-08-19T11:13:06;23.40;99.90
12276;DHT22;6200;48.144;11.424;2022-08-19T11:15:31;23.20;99.90
12276;DHT22;6200;48.144;11.424;2022-08-19T11:17:57;23.10;99.90
12276;DHT22;6200;48.144;11.424;2022-08-19T11:20:23;22.70;99.90
12276;DHT22;6200;48.144;11.424;2022-08-19T11:22:48;22.70;99.90
12276;DHT22;6200;48.144;11.424;2022-08-19T11:25:16;22.70;99.90
12276;DHT22;6200;48.144;11.424;2022-08-19T11:27:42;22.80;99.90
12276;DHT22;6200;48.144;11.424;2022-08-19T11:30:09;22.70;99.90
12276;DHT22;6200;48.144;11.424;2022-08-19T11:32:35;22.70;99.90
12276;DHT22;6200;48.144;11.424;2022-08-19T11:35:01;22.90;99.90
12276;DHT22;6200;48.144;11.424;2022-08-19T11:37:26;22.90;99.90
12276;DHT22;6200;48.144;11.424;2022-08-19T11:39:52;22.90;99.90
12276;DHT22;6200;48.144;11.424;2022-08-19T11:42:18;22.90;99.90
12276;DHT22;6200;48.144;11.424;2022-08-19T11:45:03;22.40;99.90
12276;DHT22;6200;48.144;11.424;2022-08-19T11:47:29;22.30;99.90
12276;DHT22;6200;48.144;11.424;2022-08-19T11:49:56;22.10;99.90
12276;DHT22;6200;48.144;11.424;2022-08-19T11:52:21;22.00;99.90
12276;DHT22;6200;48.144;11.424;2022-08-19T11:54:47;22.50;99.90
12276;DHT22;6200;48.144;11.424;2022-08-19T11:57:13;21.50;99.90
12276;DHT22;6200;48.144;11.424;2022-08-19T11:59:42;21.50;99.90
12276;DHT22;6200;48.144;11.424;2022-08-19T12:02:08;21.50;99.90
12276;DHT22;6200;48.144;11.424;2022-08-19T12:04:34;21.50;99.90
12276;DHT22;6200;48.144;11.424;2022-08-19T12:07:00;21.30;99.90
12276;DHT22;6200;48.144;11.424;2022-08-19T12:09:25;21.50;99.90
12276;DHT22;6200;48.144;11.424;2022-08-19T12:11:51;21.60;99.90
12276;DHT22;6200;48.144;11.424;2022-08-19T12:14:16;21.50;99.90
12276;DHT22;6200;48.144;11.424;2022-08-19T12:16:45;21.50;99.90
12276;DHT22;6200;48.144;11.424;2022-08-19T12:19:11;21.50;99.90
12276;DHT22;6200;48.144;11.424;2022-08-19T12:21:37;21.40;99.90
12276;DHT22;6200;48.144;11.424;2022-08-19T12:24:04;21.60;99.90
12276;DHT22;6200;48.144;11.424;2022-08-19T12:26:30;21.80;99.90
12276;DHT22;6200;48.144;11.424;2022-08-19T12:28:57;21.80;99.90
12276;DHT22;6200;48.144;11.424;2022-08-19T12:31:25;22.00;99.90
12276;DHT22;6200;48.144;11.424;2022-08-19T12:33:50;21.90;99.90
12276;DHT22;6200;48.144;11.424;2022-08-19T12:36:17;21.90;99.90
12276;DHT22;6200;48.144;11.424;2022-08-19T12:38:43;21.80;99.90
12276;DHT22;6200;48.144;11.424;2022-08-19T12:41:11;22.00;99.90
12276;DHT22;6200;48.144;11.424;2022-08-19T12:43:37;22.00;99.90
12276;DHT22;6200;48.144;11.424;2022-08-19T12:46:04;22.20;99.90
12276;DHT22;6200;48.144;11.424;2022-08-19T12:48:31;22.20;99.90
12276;DHT22;6200;48.144;11.424;2022-08-19T12:50:56;22.10;99.90
12276;DHT22;6200;48.144;11.424;2022-08-19T12:53:22;21.80;99.90
12276;DHT22;6200;48.144;11.424;2022-08-19T12:55:47;22.10;99.90
12276;DHT22;6200;48.144;11.424;2022-08-19T12:58:13;22.10;99.90
12276;DHT22;6200;48.144;11.424;2022-08-19T13:00:39;22.20;99.90
12276;DHT22;6200;48.144;11.424;2022-08-19T13:03:04;22.30;99.90
12276;DHT22;6200;48.144;11.424;2022-08-19T13:05:31;22.50;99.90
12276;DHT22;6200;48.144;11.424;2022-08-19T13:07:59;22.60;99.90
12276;DHT22;6200;48.144;11.424;2022-08-19T13:10:29;22.70;99.90
12276;DHT22;6200;48.144;11.424;2022-08-19T13:12:55;22.90;99.90
12276;DHT22;6200;48.144;11.424;2022-08-19T13:15:23;23.40;99.90
12276;DHT22;6200;48.144;11.424;2022-08-19T13:17:50;24.60;99.90
12276;DHT22;6200;48.144;11.424;2022-08-19T13:20:18;24.90;99.90
12276;DHT22;6200;48.144;11.424;2022-08-19T13:22:44;24.80;99.90
12276;DHT22;6200;48.144;11.424;2022-08-19T13:25:11;24.40;99.90
12276;DHT22;6200;48.144;11.424;2022-08-19T13:27:37;24.10;99.90
12276;DHT22;6200;48.144;11.424;2022-08-19T13:30:05;23.90;99.90
12276;DHT22;6200;48.144;11.424;2022-08-19T13:32:50;23.70;99.90
12276;DHT22;6200;48.144;11.424;2022-08-19T13:35:34;23.30;99.90
12276;DHT22;6200;48.144;11.424;2022-08-19T13:37:59;23.00;99.90
12276;DHT22;6200;48.144;11.424;2022-08-19T13:40:26;22.80;99.90
12276;DHT22;6200;48.144;11.424;2022-08-19T13:42:54;22.80;99.90
12276;DHT22;6200;48.144;11.424;2022-08-19T13:45:22;22.80;99.90
12276;DHT22;6200;48.144;11.424;2022-08-19T13:47:50;22.80;99.90
12276;DHT22;6200;48.144;11.424;2022-08-19T13:50:19;22.50;99.90
12276;DHT22;6200;48.144;11.424;2022-08-19T13:52:45;22.10;99.90
12276;DHT22;6200;48.144;11.424;2022-08-19T13:55:13;22.00;99.90
12276;DHT22;6200;48.144;11.424;2022-08-19T13:57:39;22.00;99.90
12276;DHT22;6200;48.144;11.424;2022-08-19T14:00:15;21.70;99.90
12276;DHT22;6200;48.144;11.424;2022-08-19T14:02:43;21.60;99.90
12276;DHT22;6200;48.144;11.424;2022-08-19T14:05:11;21.70;99.90
12276;DHT22;6200;48.144;11.424;2022-08-19T14:07:37;22.00;99.90
12276;DHT22;6200;48.144;11.424;2022-08-19T14:10:05;22.40;99.90
12276;DHT22;6200;48.144;11.424;2022-08-19T14:12:32;22.70;99.90
12276;DHT22;6200;48.144;11.424;2022-08-19T14:14:58;23.20;99.90
12276;DHT22;6200;48.144;11.424;2022-08-19T14:17:24;23.50;99.90
12276;DHT22;6200;48.144;11.424;2022-08-19T14:19:56;23.60;99.90
12276;DHT22;6200;48.144;11.424;2022-08-19T14:22:21;23.40;99.90
12276;DHT22;6200;48.144;11.424;2022-08-19T14:24:47;23.20;99.90
12276;DHT22;6200;48.144;11.424;2022-08-19T14:27:13;22.90;99.90
12276;DHT22;6200;48.144;11.424;2022-08-19T14:29:39;22.70;99.90
12276;DHT22;6200;48.144;11.424;2022-08-19T14:32:05;22.50;99.90
12276;DHT22;6200;48.144;11.424;2022-08-19T14:34:31;22.20;99.90
12276;DHT22;6200;48.144;11.424;2022-08-19T14:36:57;22.10;99.90
12276;DHT22;6200;48.144;11.424;2022-08-19T14:39:23;22.00;99.90
12276;DHT22;6200;48.144;11.424;2022-08-19T14:41:48;21.90;99.90
12276;DHT22;6200;48.144;11.424;2022-08-19T14:44:14;21.60;99.90
12276;DHT22;6200;48.144;11.424;2022-08-19T14:46:39;21.50;99.90
12276;DHT22;6200;48.144;11.424;2022-08-19T14:49:05;21.40;99.90
12276;DHT22;6200;48.144;11.424;2022-08-19T14:51:31;21.40;99.90
12276;DHT22;6200;48.144;11.424;2022-08-19T14:53:57;21.40;99.90
12276;DHT22;6200;48.144;11.424;2022-08-19T14:56:27;21.40;99.90
12276;DHT22;6200;48.144;11.424;2022-08-19T14:58:53;21.30;99.90
12276;DHT22;6200;48.144;11.424;2022-08-19T15:01:21;21.40;99.90
12276;DHT22;6200;48.144;11.424;2022-08-19T15:03:48;21.40;99.90
12276;DHT22;6200;48.144;11.424;2022-08-19T15:06:14;21.30;99.90
12276;DHT22;6200;48.144;11.424;2022-08-19T15:08:42;21.30;99.90
12276;DHT22;6200;48.144;11.424;2022-08-19T15:11:14;21.30;99.90
12276;DHT22;6200;48.144;11.424;2022-08-19T15:13:41;21.30;99.90
12276;DHT22;6200;48.144;11.424;2022-08-19T15:16:07;21.20;99.90
12276;DHT22;6200;48.144;11.424;2022-08-19T15:18:34;21.10;99.90
12276;DHT22;6200;48.144;11.424;2022-08-19T15:21:01;21.20;99.90
12276;DHT22;6200;48.144;11.424;2022-08-19T15:23:27;21.20;99.90
12276;DHT22;6200;48.144;11.424;2022-08-19T15:25:53;21.10;99.90
12276;DHT22;6200;48.144;11.424;2022-08-19T15:28:24;21.10;99.90
12276;DHT22;6200;48.144;11.424;2022-08-19T15:30:50;21.00;99.90
12276;DHT22;6200;48.144;11.424;2022-08-19T15:33:18;21.00;99.90
12276;DHT22;6200;48.144;11.424;2022-08-19T15:35:45;20.80;99.90
12276;DHT22;6200;48.144;11.424;2022-08-19T15:38:11;20.80;99.90
12276;DHT22;6200;48.144;11.424;2022-08-19T15:40:42;20.70;99.90
12276;DHT22;6200;48.144;11.424;2022-08-19T15:43:07;20.80;99.90
12276;DHT22;6200;48.144;11.424;2022-08-19T15:45:33;20.80;99.90